createdAt,value
2022-12-11T00:02:01.649Z,-0.77
2022-12-11T00:04:03.335Z,-0.54
2022-12-11T00:06:06.464Z,-0.63
2022-12-11T00:08:08.181Z,-0.61
2022-12-11T00:10:09.909Z,-0.44
2022-12-11T00:12:11.791Z,-0.33
2022-12-11T00:14:15.568Z,-0.58
2022-12-11T00:16:25.281Z,-0.51
2022-12-11T00:18:28.396Z,-0.67
2022-12-11T00:20:30.078Z,-0.90
2022-12-11T00:22:34.565Z,-0.84
2022-12-11T00:24:36.136Z,-0.55
2022-12-11T00:26:38.173Z,-0.58
2022-12-11T00:28:39.803Z,-0.64
2022-12-11T00:30:43.068Z,-0.77
2022-12-11T00:32:44.607Z,-0.84
2022-12-11T00:34:46.183Z,-0.76
2022-12-11T00:36:48.459Z,-0.71
2022-12-11T00:38:50.694Z,-0.60
2022-12-11T00:40:52.261Z,-0.73
2022-12-11T00:42:53.789Z,-0.74
2022-12-11T00:44:55.325Z,-0.70
2022-12-11T00:46:58.191Z,-0.46
2022-12-11T00:49:00.045Z,-0.66
2022-12-11T00:51:01.723Z,-0.64
2022-12-11T00:53:03.987Z,-0.80
2022-12-11T00:55:06.154Z,-0.61
2022-12-11T00:57:07.761Z,-0.66
2022-12-11T00:59:09.499Z,-0.59
2022-12-11T01:01:13.603Z,-0.50
2022-12-11T01:03:17.580Z,-0.51
2022-12-11T01:05:19.194Z,-0.85
2022-12-11T01:07:20.769Z,-0.71
2022-12-11T01:09:22.287Z,-0.66
2022-12-11T01:11:25.885Z,-0.89
2022-12-11T01:13:27.429Z,-0.84
2022-12-11T01:15:30.541Z,-0.83
2022-12-11T01:17:32.056Z,-0.84
2022-12-11T01:19:35.084Z,-0.80
2022-12-11T01:21:36.764Z,-0.81
2022-12-11T01:23:38.795Z,-0.56
2022-12-11T01:25:41.655Z,-0.68
2022-12-11T01:27:47.061Z,-0.71
2022-12-11T01:29:48.928Z,-0.64
2022-12-11T01:31:50.480Z,-0.71
2022-12-11T01:33:54.105Z,-0.72
2022-12-11T01:35:57.027Z,-0.62
2022-12-11T01:37:58.567Z,-0.72
2022-12-11T01:40:00.817Z,-0.92
2022-12-11T01:42:02.322Z,-0.75
2022-12-11T01:44:07.352Z,-0.61
2022-12-11T01:46:08.935Z,-0.63
2022-12-11T01:48:14.242Z,-0.76
2022-12-11T01:50:16.533Z,-0.82
2022-12-11T01:52:31.042Z,-0.63
2022-12-11T01:54:32.559Z,-0.53
2022-12-11T01:56:35.832Z,-0.62
2022-12-11T01:58:42.309Z,-0.79
2022-12-11T02:00:43.849Z,-0.59
2022-12-11T02:02:45.460Z,-0.70
2022-12-11T02:04:47.653Z,-0.59
2022-12-11T02:06:50.881Z,-0.91
2022-12-11T02:08:53.978Z,-0.75
2022-12-11T02:11:05.315Z,-0.86
2022-12-11T02:13:14.664Z,-0.77
2022-12-11T02:15:25.012Z,-0.63
2022-12-11T02:17:35.181Z,-0.64
2022-12-11T02:19:49.528Z,-0.65
2022-12-11T02:21:53.619Z,-0.65
2022-12-11T02:24:23.241Z,-0.74
2022-12-11T02:26:54.619Z,-0.72
2022-12-11T02:28:59.325Z,-0.70
2022-12-11T02:31:07.185Z,-0.72
2022-12-11T02:33:11.824Z,-0.50
2022-12-11T02:35:17.845Z,-0.71
2022-12-11T02:37:22.778Z,-0.68
2022-12-11T02:39:27.350Z,-0.70
2022-12-11T02:41:30.189Z,-0.74
2022-12-11T02:43:34.304Z,-0.87
2022-12-11T02:45:40.381Z,-0.80
2022-12-11T02:47:46.138Z,-0.67
2022-12-11T02:49:50.029Z,-0.88
2022-12-11T02:51:52.843Z,-0.78
2022-12-11T02:53:57.851Z,-0.73
2022-12-11T02:56:07.836Z,-0.60
2022-12-11T02:58:15.766Z,-0.86
2022-12-11T03:00:17.647Z,-0.90
2022-12-11T03:02:20.645Z,-0.83
2022-12-11T03:04:22.304Z,-0.80
2022-12-11T03:06:28.870Z,-0.93
2022-12-11T03:08:31.317Z,-0.69
2022-12-11T03:10:32.938Z,-0.61
2022-12-11T03:12:37.241Z,-0.67
2022-12-11T03:14:40.483Z,-0.48
2022-12-11T03:16:53.257Z,-0.38
2022-12-11T03:19:02.346Z,-0.60
2022-12-11T03:21:07.892Z,-0.63
2022-12-11T03:23:18.105Z,-0.84
2022-12-11T03:25:22.605Z,-0.88
2022-12-11T03:27:30.327Z,-0.94
2022-12-11T03:29:37.275Z,-0.80
2022-12-11T03:31:43.360Z,-0.94
2022-12-11T03:33:48.624Z,-0.87
2022-12-11T03:35:54.013Z,-1.03
2022-12-11T03:37:58.040Z,-1.07
2022-12-11T03:40:04.506Z,-0.98
2022-12-11T03:42:10.145Z,-0.89
2022-12-11T03:44:12.939Z,-0.77
2022-12-11T03:46:16.911Z,-0.71
2022-12-11T03:48:19.772Z,-0.64
2022-12-11T03:50:23.527Z,-0.81
2022-12-11T03:52:29.015Z,-0.73
2022-12-11T03:54:31.954Z,-0.72
2022-12-11T03:56:35.758Z,-0.97
2022-12-11T03:58:37.411Z,-1.02
2022-12-11T04:00:39.070Z,-0.90
2022-12-11T04:02:40.698Z,-0.65
2022-12-11T04:04:42.918Z,-0.75
2022-12-11T04:06:44.515Z,-0.81
2022-12-11T04:08:47.446Z,-0.69
2022-12-11T04:10:49.814Z,-0.93
2022-12-11T04:12:51.453Z,-0.84
2022-12-11T04:14:52.965Z,-0.81
2022-12-11T04:16:55.302Z,-0.72
2022-12-11T04:18:56.872Z,-0.74
2022-12-11T04:20:58.421Z,-0.91
2022-12-11T04:22:59.994Z,-0.75
2022-12-11T04:25:06.264Z,-0.65
2022-12-11T04:27:07.914Z,-0.81
2022-12-11T04:29:09.500Z,-0.79
2022-12-11T04:31:12.225Z,-0.76
2022-12-11T04:33:13.791Z,-0.69
2022-12-11T04:35:15.533Z,-0.75
2022-12-11T04:37:17.162Z,-0.84
2022-12-11T04:39:18.717Z,-0.75
2022-12-11T04:41:21.614Z,-0.89
2022-12-11T04:43:23.484Z,-0.60
2022-12-11T04:45:24.998Z,-0.58
2022-12-11T04:47:26.540Z,-0.69
2022-12-11T04:49:28.112Z,-0.75
2022-12-11T04:51:29.800Z,-0.53
2022-12-11T04:53:31.690Z,-0.56
2022-12-11T04:55:33.537Z,-0.46
2022-12-11T04:57:36.408Z,-0.66
2022-12-11T04:59:38.025Z,-0.78
2022-12-11T05:01:41.366Z,-0.62
2022-12-11T05:03:43.302Z,-0.85
2022-12-11T05:05:47.547Z,-0.75
2022-12-11T05:07:49.101Z,-0.88
2022-12-11T05:09:50.692Z,-0.87
2022-12-11T05:11:52.295Z,-0.83
2022-12-11T05:13:55.247Z,-0.78
2022-12-11T05:15:57.853Z,-0.71
2022-12-11T05:17:59.408Z,-1.12
2022-12-11T05:20:01.078Z,-1.05
2022-12-11T05:22:02.624Z,-1.36
2022-12-11T05:24:04.826Z,-1.17
2022-12-11T05:26:08.211Z,-1.26
2022-12-11T05:28:09.827Z,-1.43
2022-12-11T05:30:13.228Z,-1.33
2022-12-11T05:32:14.776Z,-1.41
2022-12-11T05:34:16.402Z,-1.35
2022-12-11T05:36:20.675Z,-1.19
2022-12-11T05:38:22.761Z,-1.07
2022-12-11T05:40:24.295Z,-1.23
2022-12-11T05:42:29.007Z,-0.97
2022-12-11T05:44:30.975Z,-1.13
2022-12-11T05:46:33.933Z,-1.21
2022-12-11T05:48:36.223Z,-1.38
2022-12-11T05:50:37.772Z,-1.21
2022-12-11T05:52:39.331Z,-1.15
2022-12-11T05:54:40.839Z,-1.07
2022-12-11T05:56:42.761Z,-0.74
2022-12-11T05:58:47.311Z,-0.83
2022-12-11T06:00:48.903Z,-0.82
2022-12-11T06:02:51.964Z,-1.06
2022-12-11T06:04:53.588Z,-0.98
2022-12-11T06:06:55.283Z,-0.91
2022-12-11T06:08:58.573Z,-1.06
2022-12-11T06:11:00.522Z,-1.05
2022-12-11T06:13:02.081Z,-0.92
2022-12-11T06:15:04.009Z,-0.76
2022-12-11T06:17:05.530Z,-0.81
2022-12-11T06:19:13.784Z,-0.80
2022-12-11T06:21:17.047Z,-0.91
2022-12-11T06:23:18.595Z,-0.90
2022-12-11T06:25:20.093Z,-0.96
2022-12-11T06:27:21.644Z,-0.83
2022-12-11T06:29:23.157Z,-1.04
2022-12-11T06:31:24.752Z,-1.00
2022-12-11T06:33:26.561Z,-1.32
2022-12-11T06:35:29.563Z,-1.04
2022-12-11T06:37:31.165Z,-1.05
2022-12-11T06:39:32.848Z,-0.94
2022-12-11T06:41:34.373Z,-1.11
2022-12-11T06:43:40.343Z,-1.04
2022-12-11T06:45:42.171Z,-1.11
2022-12-11T06:47:43.558Z,-0.77
2022-12-11T06:49:45.069Z,-1.13
2022-12-11T06:51:47.971Z,-0.89
2022-12-11T06:53:51.246Z,-0.79
2022-12-11T06:55:52.782Z,-1.18
2022-12-11T06:57:54.599Z,-1.14
2022-12-11T06:59:55.937Z,-0.91
2022-12-11T07:01:57.534Z,-1.13
2022-12-11T07:04:00.082Z,-1.17
2022-12-11T07:06:02.180Z,-1.28
2022-12-11T07:08:05.447Z,-1.71
2022-12-11T07:10:08.872Z,-1.81
2022-12-11T07:12:10.501Z,-1.70
2022-12-11T07:14:12.068Z,-1.67
2022-12-11T07:16:15.563Z,-1.68
2022-12-11T07:18:17.102Z,-1.81
2022-12-11T07:20:18.642Z,-1.88
2022-12-11T07:22:20.222Z,-1.72
2022-12-11T07:24:23.262Z,-1.80
2022-12-11T07:26:25.047Z,-1.84
2022-12-11T07:28:26.654Z,-2.01
2022-12-11T07:30:28.244Z,-1.89
2022-12-11T07:32:29.947Z,-1.88
2022-12-11T07:34:31.631Z,-2.01
2022-12-11T07:36:33.755Z,-1.86
2022-12-11T07:38:35.661Z,-1.87
2022-12-11T07:40:38.397Z,-1.63
2022-12-11T07:42:45.826Z,-1.81
2022-12-11T07:44:48.432Z,-1.86
2022-12-11T07:46:50.115Z,-1.72
2022-12-11T07:48:51.718Z,-1.64
2022-12-11T07:50:53.269Z,-1.84
2022-12-11T07:52:54.852Z,-1.69
2022-12-11T07:54:56.355Z,-1.55
2022-12-11T07:56:59.259Z,-1.34
2022-12-11T07:59:02.542Z,-1.26
2022-12-11T08:01:04.322Z,-1.61
2022-12-11T08:03:05.684Z,-1.76
2022-12-11T08:05:08.729Z,-1.70
2022-12-11T08:07:10.526Z,-1.86
2022-12-11T08:09:19.121Z,-1.58
2022-12-11T08:11:23.080Z,-1.77
2022-12-11T08:13:26.115Z,-1.94
2022-12-11T08:15:27.645Z,-1.83
2022-12-11T08:17:31.916Z,-1.81
2022-12-11T08:19:35.516Z,-1.86
2022-12-11T08:21:37.049Z,-1.78
2022-12-11T08:23:38.839Z,-1.84
2022-12-11T08:25:40.171Z,-1.52
2022-12-11T08:27:41.725Z,-1.56
2022-12-11T08:29:44.715Z,-1.56
2022-12-11T08:31:46.271Z,-1.49
2022-12-11T08:33:48.635Z,-1.71
2022-12-11T08:35:50.288Z,-1.77
2022-12-11T08:37:51.847Z,-2.00
2022-12-11T08:39:53.390Z,-1.92
2022-12-11T08:41:54.907Z,-2.09
2022-12-11T08:43:57.370Z,-2.16
2022-12-11T08:46:00.378Z,-1.83
2022-12-11T08:48:02.278Z,-1.90
2022-12-11T08:50:04.949Z,-1.78
2022-12-11T08:52:07.111Z,-2.01
2022-12-11T08:54:09.866Z,-1.90
2022-12-11T08:56:13.177Z,-2.06
2022-12-11T08:58:14.831Z,-1.95
2022-12-11T09:00:18.099Z,-1.63
2022-12-11T09:02:21.061Z,-1.50
2022-12-11T09:04:22.973Z,-1.39
2022-12-11T09:06:25.259Z,-1.24
2022-12-11T09:08:27.035Z,-1.29
2022-12-11T09:10:28.649Z,-1.46
2022-12-11T09:12:30.230Z,-1.36
2022-12-11T09:14:31.742Z,-1.50
2022-12-11T09:16:33.597Z,-1.45
2022-12-11T09:18:36.366Z,-1.38
2022-12-11T09:20:37.882Z,-1.01
2022-12-11T09:22:39.452Z,-0.81
2022-12-11T09:24:41.069Z,-0.96
2022-12-11T09:26:42.799Z,-1.03
2022-12-11T09:28:46.917Z,-1.10
2022-12-11T09:30:49.400Z,-1.32
2022-12-11T09:32:50.995Z,-1.54
2022-12-11T09:34:53.964Z,-1.42
2022-12-11T09:36:55.527Z,-1.44
2022-12-11T09:39:00.011Z,-1.35
2022-12-11T09:41:02.151Z,-1.23
2022-12-11T09:43:09.181Z,-1.06
2022-12-11T09:45:14.028Z,-0.82
2022-12-11T09:47:21.005Z,-1.13
2022-12-11T09:49:28.553Z,-1.04
2022-12-11T09:51:41.139Z,-1.03
2022-12-11T09:53:42.732Z,-1.03
2022-12-11T09:55:52.559Z,-1.22
2022-12-11T09:58:02.470Z,-0.92
2022-12-11T10:00:24.337Z,-1.03
2022-12-11T10:02:38.322Z,-1.16
2022-12-11T10:04:49.955Z,-1.05
2022-12-11T10:07:03.592Z,-1.07
2022-12-11T10:09:17.060Z,-0.93
2022-12-11T10:11:43.937Z,-1.12
2022-12-11T10:13:55.043Z,-1.09
2022-12-11T10:16:00.541Z,-1.02
2022-12-11T10:18:05.974Z,-1.00
2022-12-11T10:20:26.319Z,-0.83
2022-12-11T10:22:32.611Z,-1.04
2022-12-11T10:25:10.111Z,-0.97
2022-12-11T10:27:14.622Z,-0.84
2022-12-11T10:29:21.912Z,-1.04
2022-12-11T10:31:34.871Z,-1.03
2022-12-11T10:33:46.305Z,-1.07
2022-12-11T10:35:51.334Z,-1.14
2022-12-11T10:37:57.506Z,-1.07
2022-12-11T10:39:59.060Z,-1.19
2022-12-11T10:42:10.618Z,-1.01
2022-12-11T10:44:16.140Z,-0.83
2022-12-11T10:46:20.110Z,-0.92
2022-12-11T10:48:22.161Z,-0.86
2022-12-11T10:50:25.839Z,-0.97
2022-12-11T10:52:33.134Z,-1.17
2022-12-11T10:54:39.793Z,-0.88
2022-12-11T10:56:41.374Z,-0.97
2022-12-11T10:58:50.055Z,-1.23
2022-12-11T11:01:03.436Z,-0.95
2022-12-11T11:03:07.690Z,-0.85
2022-12-11T11:05:14.999Z,-0.50
2022-12-11T11:07:20.540Z,-0.39
2022-12-11T11:09:29.978Z,-0.27
2022-12-11T11:11:36.562Z,-0.59
2022-12-11T11:13:38.212Z,-0.81
2022-12-11T11:15:39.896Z,-0.75
2022-12-11T11:17:52.966Z,-0.51
2022-12-11T11:19:59.773Z,-0.49
2022-12-11T11:22:05.379Z,-0.47
2022-12-11T11:24:07.039Z,-0.76
2022-12-11T11:26:08.793Z,-0.69
2022-12-11T11:28:17.933Z,-0.46
2022-12-11T11:30:22.067Z,-0.78
2022-12-11T11:32:33.722Z,-0.79
2022-12-11T11:34:35.262Z,-0.58
2022-12-11T11:36:37.984Z,-0.64
2022-12-11T11:38:47.642Z,-0.58
2022-12-11T11:41:00.747Z,-0.89
2022-12-11T11:43:16.283Z,-0.91
2022-12-11T11:45:22.847Z,-0.75
2022-12-11T11:47:27.619Z,-0.69
2022-12-11T11:49:44.483Z,-0.53
2022-12-11T11:51:51.396Z,-0.71
2022-12-11T11:53:56.756Z,-0.57
2022-12-11T11:56:05.581Z,-0.42
2022-12-11T11:58:12.742Z,-0.53
2022-12-11T12:00:22.406Z,-0.42
2022-12-11T12:02:24.091Z,-0.60
2022-12-11T12:04:31.498Z,-0.35
2022-12-11T12:06:50.937Z,-0.28
2022-12-11T12:09:00.880Z,-0.75
2022-12-11T12:11:09.858Z,-0.83
2022-12-11T12:13:48.017Z,-0.84
2022-12-11T12:15:50.132Z,-0.73
2022-12-11T12:17:56.188Z,-0.59
2022-12-11T12:20:11.098Z,-0.52
2022-12-11T12:22:34.923Z,-0.73
2022-12-11T12:24:48.645Z,-0.73
2022-12-11T12:26:55.903Z,-0.79
2022-12-11T12:29:12.967Z,-0.75
2022-12-11T12:31:30.696Z,-0.66
2022-12-11T12:33:45.351Z,-0.58
2022-12-11T12:35:55.753Z,-0.46
2022-12-11T12:38:04.580Z,-0.44
2022-12-11T12:40:18.943Z,-0.42
2022-12-11T12:42:33.279Z,-0.38
2022-12-11T12:44:41.628Z,-0.53
2022-12-11T12:46:51.741Z,-0.47
2022-12-11T12:48:56.303Z,-0.43
2022-12-11T12:50:58.198Z,-0.61
2022-12-11T12:53:00.524Z,-0.57
2022-12-11T12:55:15.677Z,-0.30
2022-12-11T12:57:17.606Z,-0.50
2022-12-11T12:59:21.514Z,-0.65
2022-12-11T13:01:25.948Z,-0.51
2022-12-11T13:03:32.836Z,-0.16
2022-12-11T13:05:34.723Z,-0.38
2022-12-11T13:07:37.565Z,-0.34
2022-12-11T13:09:39.312Z,-0.27
2022-12-11T13:11:41.056Z,-0.64
2022-12-11T13:13:48.980Z,-0.29
2022-12-11T13:15:53.365Z,-0.42
2022-12-11T13:17:55.044Z,-0.30
2022-12-11T13:20:17.224Z,-0.27
2022-12-11T13:22:23.501Z,-0.39
2022-12-11T13:24:27.019Z,-0.39
2022-12-11T13:26:30.844Z,-0.34
2022-12-11T13:28:46.814Z,-0.36
2022-12-11T13:30:57.429Z,-0.47
2022-12-11T13:33:03.664Z,-0.38
2022-12-11T13:35:06.937Z,-0.60
2022-12-11T13:37:25.047Z,-0.46
2022-12-11T13:39:29.091Z,-0.65
2022-12-11T13:41:35.051Z,-0.40
2022-12-11T13:43:40.949Z,-0.66
2022-12-11T13:45:46.438Z,-0.21
2022-12-11T13:47:48.164Z,-0.27
2022-12-11T13:49:54.971Z,-0.43
2022-12-11T13:51:58.572Z,-0.53
2022-12-11T13:54:17.090Z,-0.50
2022-12-11T13:56:21.403Z,-0.54
2022-12-11T13:58:23.673Z,-0.57
2022-12-11T14:00:27.591Z,-0.57
2022-12-11T14:02:32.540Z,-0.50
2022-12-11T14:04:34.947Z,-0.41
2022-12-11T14:06:38.879Z,-0.43
2022-12-11T14:08:44.021Z,-0.30
2022-12-11T14:10:52.118Z,-0.03
2022-12-11T14:12:55.982Z,-0.23
2022-12-11T14:14:59.441Z,-0.18
2022-12-11T14:17:01.156Z,-0.25
2022-12-11T14:19:03.552Z,-0.44
2022-12-11T14:21:06.652Z,-0.04
2022-12-11T14:23:16.642Z,-0.22
2022-12-11T14:25:22.226Z,-0.37
2022-12-11T14:27:26.248Z,-0.41
2022-12-11T14:29:30.422Z,-0.26
2022-12-11T14:31:36.160Z,-0.41
2022-12-11T14:33:43.780Z,-0.41
2022-12-11T14:35:47.026Z,-0.56
2022-12-11T14:37:48.995Z,-0.46
2022-12-11T14:39:57.097Z,-0.51
2022-12-11T14:42:03.154Z,-0.64
2022-12-11T14:44:08.444Z,-0.72
2022-12-11T14:46:16.936Z,-0.60
2022-12-11T14:48:22.930Z,-0.30
2022-12-11T14:50:30.634Z,-0.36
2022-12-11T14:52:36.551Z,-0.36
2022-12-11T14:54:43.823Z,-0.50
2022-12-11T14:56:46.264Z,-0.54
2022-12-11T14:58:55.418Z,-0.43
2022-12-11T15:01:00.311Z,-0.46
2022-12-11T15:03:03.987Z,-0.56
2022-12-11T15:05:13.597Z,-0.44
2022-12-11T15:07:20.625Z,-0.57
2022-12-11T15:09:26.757Z,-0.26
2022-12-11T15:11:31.916Z,-0.40
2022-12-11T15:13:35.315Z,-0.66
2022-12-11T15:15:44.945Z,-0.72
2022-12-11T15:17:52.903Z,-0.65
2022-12-11T15:20:01.891Z,-0.53
2022-12-11T15:22:05.749Z,-0.57
2022-12-11T15:24:23.290Z,-0.49
2022-12-11T15:26:33.855Z,-0.40
2022-12-11T15:28:36.986Z,-0.71
2022-12-11T15:30:38.568Z,-0.61
2022-12-11T15:32:40.410Z,-0.60
2022-12-11T15:34:44.854Z,-0.71
2022-12-11T15:36:46.623Z,-0.59
2022-12-11T15:38:48.125Z,-0.38
2022-12-11T15:40:49.720Z,-0.48
2022-12-11T15:42:52.311Z,-0.37
2022-12-11T15:44:55.557Z,-0.55
2022-12-11T15:46:57.123Z,-0.34
2022-12-11T15:48:58.815Z,-0.51
2022-12-11T15:51:01.994Z,-0.53
2022-12-11T15:53:03.754Z,-0.46
2022-12-11T15:55:05.556Z,-0.43
2022-12-11T15:57:14.351Z,-0.39
2022-12-11T15:59:16.352Z,-0.23
2022-12-11T16:01:17.996Z,-0.31
2022-12-11T16:03:20.945Z,-0.44
2022-12-11T16:05:23.038Z,-0.38
2022-12-11T16:07:26.477Z,-0.27
2022-12-11T16:09:28.023Z,-0.27
2022-12-11T16:11:29.614Z,-0.52
2022-12-11T16:13:31.223Z,-0.38
2022-12-11T16:15:32.838Z,-0.07
2022-12-11T16:17:34.587Z,-0.07
2022-12-11T16:19:37.195Z,-0.26
2022-12-11T16:21:38.769Z,-0.24
2022-12-11T16:23:41.779Z,-0.51
2022-12-11T16:25:45.004Z,-0.29
2022-12-11T16:27:46.796Z,-0.22
2022-12-11T16:29:48.215Z,-0.37
2022-12-11T16:31:49.900Z,-0.50
2022-12-11T16:33:51.409Z,-0.41
2022-12-11T16:35:52.960Z,-0.32
2022-12-11T16:37:55.404Z,-0.34
2022-12-11T16:39:58.348Z,-0.37
2022-12-11T16:41:59.975Z,-0.41
2022-12-11T16:44:01.610Z,-0.39
2022-12-11T16:46:03.624Z,-0.33
2022-12-11T16:48:05.569Z,-0.24
2022-12-11T16:50:07.765Z,-0.34
2022-12-11T16:52:09.674Z,-0.24
2022-12-11T16:54:12.089Z,-0.28
2022-12-11T16:56:15.065Z,-0.50
2022-12-11T16:58:16.622Z,-0.48
2022-12-11T17:00:18.405Z,-0.65
2022-12-11T17:02:19.878Z,-0.69
2022-12-11T17:04:21.425Z,-0.42
2022-12-11T17:06:23.348Z,-0.24
2022-12-11T17:08:25.881Z,-0.23
2022-12-11T17:10:27.462Z,-0.37
2022-12-11T17:12:30.623Z,-0.47
2022-12-11T17:14:32.224Z,-0.20
2022-12-11T17:16:34.063Z,-0.27
2022-12-11T17:18:36.344Z,-0.24
2022-12-11T17:20:40.520Z,-0.31
2022-12-11T17:22:42.054Z,-0.52
2022-12-11T17:24:43.942Z,-0.53
2022-12-11T17:26:45.353Z,-0.52
2022-12-11T17:28:48.264Z,-0.36
2022-12-11T17:30:49.900Z,-0.43
2022-12-11T17:32:51.651Z,-0.55
2022-12-11T17:34:53.158Z,-0.23
2022-12-11T17:36:54.767Z,-0.62
2022-12-11T17:38:56.348Z,-0.72
2022-12-11T17:40:58.145Z,-0.61
2022-12-11T17:42:59.626Z,-0.58
2022-12-11T17:45:02.617Z,-0.63
2022-12-11T17:47:10.614Z,-0.73
2022-12-11T17:49:12.776Z,-0.39
2022-12-11T17:51:16.145Z,-0.52
2022-12-11T17:53:19.682Z,-0.66
2022-12-11T17:55:21.355Z,-0.58
2022-12-11T17:57:22.971Z,-0.58
2022-12-11T17:59:24.571Z,-0.59
2022-12-11T18:01:27.618Z,-0.60
2022-12-11T18:03:29.329Z,-0.56
2022-12-11T18:05:31.006Z,-0.62
2022-12-11T18:07:32.567Z,-0.70
2022-12-11T18:09:34.181Z,-0.39
2022-12-11T18:11:35.937Z,-0.50
2022-12-11T18:13:38.649Z,-0.52
2022-12-11T18:15:40.357Z,-0.22
2022-12-11T18:17:43.375Z,-0.46
2022-12-11T18:19:46.318Z,-0.31
2022-12-11T18:21:48.147Z,-0.34
2022-12-11T18:23:49.783Z,-0.40
2022-12-11T18:25:51.497Z,-0.49
2022-12-11T18:27:53.310Z,-0.64
2022-12-11T18:29:54.756Z,-0.62
2022-12-11T18:31:56.447Z,-0.54
2022-12-11T18:33:59.396Z,-0.58
2022-12-11T18:36:00.951Z,-0.38
2022-12-11T18:38:02.608Z,-0.26
2022-12-11T18:40:05.008Z,-0.37
2022-12-11T18:42:34.320Z,-0.30
2022-12-11T18:44:28.144Z,-0.48
2022-12-11T18:46:29.752Z,-0.57
2022-12-11T18:48:31.327Z,-0.71
2022-12-11T18:50:34.932Z,-0.53
2022-12-11T18:52:36.563Z,-0.52
2022-12-11T18:54:38.534Z,-0.78
2022-12-11T18:56:40.112Z,-0.64
2022-12-11T18:58:42.436Z,-0.60
2022-12-11T19:00:44.794Z,-0.56
2022-12-11T19:02:46.785Z,-0.83
2022-12-11T19:04:48.366Z,-0.52
2022-12-11T19:06:51.393Z,-1.02
2022-12-11T19:08:53.006Z,-0.85
2022-12-11T19:10:54.618Z,-1.10
2022-12-11T19:12:56.209Z,-0.79
2022-12-11T19:14:57.785Z,-0.60
2022-12-11T19:16:59.445Z,-0.64
2022-12-11T19:19:02.661Z,-0.59
2022-12-11T19:21:09.360Z,-0.95
2022-12-11T19:23:12.414Z,-0.87
2022-12-11T19:25:14.350Z,-0.88
2022-12-11T19:27:16.311Z,-0.81
2022-12-11T19:29:20.065Z,-0.70
2022-12-11T19:31:23.204Z,-0.73
2022-12-11T19:33:24.994Z,-0.58
2022-12-11T19:35:26.550Z,-0.82
2022-12-11T19:37:28.109Z,-0.84
2022-12-11T19:39:31.091Z,-0.82
2022-12-11T19:41:32.847Z,-0.89
2022-12-11T19:43:34.914Z,-0.81
2022-12-11T19:45:37.055Z,-0.56
2022-12-11T19:47:38.693Z,-0.59
2022-12-11T19:49:40.314Z,-0.66
2022-12-11T19:51:42.788Z,-0.90
2022-12-11T19:53:45.632Z,-0.84
2022-12-11T19:55:50.739Z,-0.49
2022-12-11T19:57:52.358Z,-0.50
2022-12-11T19:59:57.182Z,-0.50
2022-12-11T20:01:59.096Z,-0.48
2022-12-11T20:04:03.471Z,-0.50
2022-12-11T20:06:07.593Z,-0.54
2022-12-11T20:08:35.710Z,-0.77
2022-12-11T20:10:30.716Z,-0.84
2022-12-11T20:12:33.710Z,-0.84
2022-12-11T20:14:36.298Z,-0.91
2022-12-11T20:19:00.002Z,-0.55
2022-12-11T20:21:02.012Z,-0.54
2022-12-11T20:23:03.604Z,-0.31
2022-12-11T20:25:06.074Z,-0.49
2022-12-11T20:27:07.631Z,-0.49
2022-12-11T20:29:12.556Z,-0.69
2022-12-11T20:31:20.022Z,-0.66
2022-12-11T20:33:22.051Z,-0.69
2022-12-11T20:35:23.604Z,-0.44
2022-12-11T20:37:25.186Z,-0.28
2022-12-11T20:39:26.788Z,-0.20
2022-12-11T20:41:28.400Z,-0.24
2022-12-11T20:43:30.192Z,-0.46
2022-12-11T20:45:32.943Z,-0.43
2022-12-11T20:47:34.693Z,-0.30
2022-12-11T20:49:36.371Z,-0.05
2022-12-11T20:51:38.320Z,-0.28
2022-12-11T20:53:40.761Z,-0.23
2022-12-11T20:55:43.265Z,-0.36
2022-12-11T20:57:45.337Z,-0.23
2022-12-11T20:59:47.382Z,-0.17
2022-12-11T21:01:50.237Z,-0.05
2022-12-11T21:03:52.214Z,-0.10
2022-12-11T21:05:53.923Z,0.02
2022-12-11T21:07:55.611Z,-0.14
2022-12-11T21:09:57.017Z,-0.23
2022-12-11T21:11:58.821Z,-0.26
2022-12-11T21:14:00.139Z,-0.10
2022-12-11T21:16:04.822Z,-0.16
2022-12-11T21:18:08.208Z,0.07
2022-12-11T21:20:10.723Z,-0.22
2022-12-11T21:22:12.284Z,0.03
2022-12-11T21:24:16.055Z,-0.10
2022-12-11T21:26:17.708Z,-0.26
2022-12-11T21:28:19.783Z,-0.16
2022-12-11T21:30:21.714Z,-0.46
2022-12-11T21:32:23.368Z,-0.30
2022-12-11T21:34:26.759Z,-0.28
2022-12-11T21:36:28.417Z,-0.44
2022-12-11T21:38:30.113Z,-0.15
2022-12-11T21:40:31.705Z,-0.09
2022-12-11T21:42:33.241Z,-0.09
2022-12-11T21:46:56.367Z,-0.21
2022-12-11T21:48:58.314Z,-0.45
2022-12-11T21:51:07.144Z,-0.37
2022-12-11T21:53:08.668Z,-0.46
2022-12-11T21:55:11.523Z,-0.65
2022-12-11T21:57:13.295Z,-0.54
2022-12-11T21:59:15.030Z,-0.64
2022-12-11T22:01:19.196Z,-0.53
2022-12-11T22:03:20.742Z,-0.59
2022-12-11T22:05:22.361Z,-0.55
2022-12-11T22:07:25.297Z,-0.97
2022-12-11T22:09:26.850Z,-1.08
2022-12-11T22:11:30.988Z,-1.07
2022-12-11T22:13:32.639Z,-0.96
2022-12-11T22:15:34.252Z,-0.80
2022-12-11T22:17:35.872Z,-1.13
2022-12-11T22:19:37.463Z,-1.12
2022-12-11T22:21:39.286Z,-1.19
2022-12-11T22:23:42.495Z,-1.05
2022-12-11T22:25:44.067Z,-1.05
2022-12-11T22:27:45.655Z,-0.78
2022-12-11T22:29:47.194Z,-0.64
2022-12-11T22:31:48.805Z,-0.72
2022-12-11T22:33:51.369Z,-1.25
2022-12-11T22:35:56.866Z,-1.02
2022-12-11T22:37:58.704Z,-1.00
2022-12-11T22:40:01.513Z,-1.25
2022-12-11T22:42:03.085Z,-1.04
2022-12-11T22:44:04.808Z,-0.97
2022-12-11T22:46:06.510Z,-0.99
2022-12-11T22:48:08.410Z,-1.15
2022-12-11T22:50:11.752Z,-1.09
2022-12-11T22:52:13.277Z,-0.85
2022-12-11T22:54:14.831Z,-0.71
2022-12-11T22:56:17.952Z,-0.74
2022-12-11T22:58:21.857Z,-0.70
2022-12-11T23:00:24.097Z,-0.74
2022-12-11T23:02:25.690Z,-0.56
2022-12-11T23:04:27.286Z,-0.63
2022-12-11T23:06:28.867Z,-0.40
2022-12-11T23:08:30.556Z,-0.33
2022-12-11T23:10:31.985Z,-0.25
2022-12-11T23:12:35.990Z,-0.38
2022-12-11T23:14:37.995Z,-0.24
2022-12-11T23:16:39.664Z,-0.22
2022-12-11T23:18:41.253Z,-0.29
2022-12-11T23:20:42.944Z,-0.33
2022-12-11T23:22:44.486Z,-0.01
2022-12-11T23:24:46.103Z,-0.22
2022-12-11T23:26:47.637Z,-0.47
2022-12-11T23:28:50.677Z,-0.20
2022-12-11T23:30:52.401Z,0.01
2022-12-11T23:32:53.808Z,0.07
2022-12-11T23:34:55.332Z,-0.07
2022-12-11T23:36:56.869Z,-0.15
2022-12-11T23:38:58.461Z,-0.14
2022-12-11T23:41:01.259Z,0.01
2022-12-11T23:43:02.810Z,-0.04
2022-12-11T23:45:06.699Z,0.09
2022-12-11T23:47:08.207Z,0.04
2022-12-11T23:49:09.762Z,-0.14
2022-12-11T23:51:13.791Z,-0.17
2022-12-11T23:53:15.466Z,-0.22
2022-12-11T23:55:17.085Z,-0.14
2022-12-11T23:57:18.711Z,-0.19
2022-12-11T23:59:20.374Z,-0.29
